Data for 12/11/2012

Time Sea-Level Adjusted Pressure Absolute Pressure Temperature Relative Humidity Dew Point   
(mb) (inHg) (mb) (inHg) (C) (F) (%) (C) (F)
00:05 1015 29.97 845 24.95 -1.9 28.6 64 -7.8 17.9
00:10 1015 29.97 845 24.95 -1.9 28.6 65 -7.6 18.3
00:15 1015 29.97 845 24.95 -2 28.4 67 -7.3 18.9
00:20 1015 29.97 845 24.95 -2.1 28.3 70 -6.8 19.8
00:25 1015 29.97 844 24.92 -2.2 28 72 -6.6 20.1
00:30 1015 29.97 844 24.92 -2.2 28.1 72 -6.6 20.2
00:35 1015 29.97 844 24.92 -2.1 28.2 73 -6.3 20.6
00:40 1015 29.97 844 24.92 -2.1 28.2 73 -6.4 20.6
00:45 1015 29.97 844 24.92 -2.1 28.1 73 -6.4 20.4
00:50 1015 29.97 844 24.92 -2.1 28.2 72 -6.5 20.3
00:55 1015 29.97 844 24.92 -2 28.3 71 -6.6 20.1
01:00 1015 29.97 844 24.92 -2 28.3 71 -6.6 20.2
01:05 1015 29.97 844 24.92 -2 28.4 71 -6.7 20
01:10 1015 29.97 844 24.92 -2 28.4 71 -6.6 20.1
01:15 1015 29.97 844 24.92 -2 28.4 70 -6.7 20
01:20 1015 29.97 844 24.92 -2 28.5 70 -6.8 19.8
01:25 1015 29.97 844 24.92 -1.9 28.6 68 -7 19.4
01:30 1015 29.97 844 24.92 -1.8 28.8 66 -7.3 18.9
01:35 1015 29.97 844 24.92 -1.6 29 65 -7.3 18.9
01:40 1015 29.97 844 24.92 -1.5 29.3 65 -7.2 19
01:45 1014 29.94 844 24.92 -1.4 29.4 65 -7.3 18.9
01:50 1014 29.94 844 24.92 -1.4 29.5 63 -7.5 18.5
01:55 1014 29.94 844 24.92 -1.3 29.7 63 -7.4 18.6
02:00 1014 29.94 843 24.89 -1.2 29.8 63 -7.5 18.6
02:05 1014 29.94 843 24.89 -1.2 29.8 63 -7.3 18.8
02:10 1014 29.94 843 24.89 -1.2 29.9 62 -7.6 18.4
02:15 1014 29.94 843 24.89 -1.1 30 65 -6.9 19.5
02:20 1014 29.94 843 24.89 -1.3 29.6 67 -6.6 20.1
02:25 1014 29.94 843 24.89 -1.6 29.2 67 -6.9 19.6
02:30 1014 29.94 843 24.89 -1.6 29.2 67 -6.9 19.5
02:35 1014 29.94 843 24.89 -1.5 29.2 66 -7.1 19.3
02:40 1014 29.94 843 24.89 -1.5 29.4 66 -7 19.5
02:45 1014 29.94 843 24.89 -1.5 29.4 66 -7 19.3
02:50 1014 29.94 843 24.89 -1.4 29.4 64 -7.5 18.6
02:55 1014 29.94 843 24.89 -1.3 29.7 64 -7.3 18.8
03:00 1014 29.94 843 24.89 -1.3 29.6 64 -7.3 18.9
03:05 1014 29.94 843 24.89 -1 30.1 61 -7.5 18.4
03:10 1014 29.94 843 24.89 -0.7 30.8 59 -7.6 18.3
03:15 1014 29.94 843 24.89 -0.4 31.2 58 -7.6 18.3
03:20 1014 29.94 843 24.89 -0.3 31.4 59 -7.4 18.6
03:25 1014 29.94 843 24.89 -0.3 31.5 58 -7.6 18.4
03:30 1014 29.94 843 24.89 -0.3 31.5 58 -7.6 18.3
03:35 1014 29.94 843 24.89 -0.3 31.5 58 -7.6 18.4
03:40 1014 29.94 843 24.89 -0.3 31.5 58 -7.5 18.5
03:45 1014 29.94 843 24.89 -0.3 31.5 58 -7.5 18.5
03:50 1014 29.94 843 24.89 -0.3 31.5 59 -7.2 19
03:55 1014 29.94 843 24.89 -0.3 31.4 60 -7.2 19.1
04:00 1014 29.94 843 24.89 -0.4 31.2 62 -6.8 19.8
04:05 1014 29.94 843 24.89 -0.6 30.9 62 -6.9 19.6
04:10 1014 29.94 843 24.89 -0.7 30.7 62 -7.1 19.2
04:15 1014 29.94 843 24.89 -0.8 30.6 62 -7.2 19.1
04:20 1014 29.94 843 24.89 -0.8 30.5 63 -7 19.3
04:25 1014 29.94 843 24.89 -0.9 30.3 64 -7 19.4
04:30 1014 29.94 843 24.89 -1 30.2 63 -7.2 19
04:35 1014 29.94 843 24.89 -1 30.2 63 -7.1 19.1
04:40 1014 29.94 843 24.89 -1 30.2 63 -7.1 19.2
04:45 1013 29.91 843 24.89 -1 30.1 64 -7 19.4
04:50 1013 29.91 843 24.89 -1 30.2 63 -7.1 19.2
04:55 1013 29.91 843 24.89 -0.9 30.4 63 -7.1 19.2
05:00 1013 29.91 842 24.86 -0.8 30.6 61 -7.3 18.9
05:05 1013 29.91 842 24.86 -0.6 30.8 61 -7.3 18.9
05:10 1013 29.91 842 24.86 -0.5 31.1 60 -7.4 18.7
05:15 1013 29.91 842 24.86 -0.4 31.3 60 -7.2 19.1
05:20 1013 29.91 842 24.86 -0.4 31.3 61 -7.1 19.2
05:25 1013 29.91 842 24.86 -0.4 31.2 61 -7.2 19.1
05:30 1013 29.91 842 24.86 -0.4 31.2 61 -7.1 19.2
05:35 1012 29.88 842 24.86 -0.4 31.4 59 -7.3 18.8
05:40 1012 29.88 842 24.86 -0.2 31.6 59 -7.3 18.8
05:45 1012 29.88 842 24.86 -0.1 31.9 58 -7.3 18.8
05:50 1012 29.88 842 24.86 0 32.1 57 -7.4 18.6
05:55 1012 29.88 841 24.83 0.1 32.3 57 -7.4 18.6
06:00 1012 29.88 841 24.83 0.1 32.2 58 -7.1 19.2
06:05 1012 29.88 841 24.83 -0.1 31.9 59 -7.1 19.3
06:10 1012 29.88 841 24.83 -0.3 31.4 61 -7 19.4
06:15 1012 29.88 841 24.83 -0.4 31.3 60 -7.3 18.9
06:20 1012 29.88 841 24.83 -0.2 31.6 59 -7.3 18.9
06:25 1012 29.88 841 24.83 -0.1 31.8 59 -7.2 19
06:30 1012 29.88 841 24.83 -0.2 31.7 61 -6.8 19.8
06:35 1012 29.88 841 24.83 -0.4 31.3 62 -6.9 19.6
06:40 1012 29.88 841 24.83 -0.4 31.2 61 -7.1 19.3
06:45 1012 29.88 841 24.83 -0.4 31.2 60 -7.2 19
06:50 1011 29.85 841 24.83 -0.4 31.2 60 -7.2 19.1
06:55 1011 29.85 841 24.83 -0.4 31.3 60 -7.1 19.2
07:00 1011 29.85 840 24.81 -0.4 31.3 61 -7 19.4
07:05 1011 29.85 840 24.81 -0.5 31.2 61 -7.2 19.1
07:10 1011 29.85 840 24.81 -0.4 31.2 61 -7.1 19.3
07:15 1011 29.85 840 24.81 -0.4 31.2 61 -7.1 19.2
07:20 1011 29.85 840 24.81 -0.5 31 61 -7.2 19.1
07:25 1011 29.85 840 24.81 -0.6 30.9 61 -7.2 19.1
07:30 1011 29.85 840 24.81 -0.8 30.6 61 -7.4 18.7
07:35 1010 29.83 840 24.81 -0.8 30.5 61 -7.5 18.6
07:40 1010 29.83 840 24.81 -0.8 30.5 59 -7.9 17.7
07:45 1010 29.83 840 24.81 -0.6 30.9 59 -7.6 18.4
07:50 1010 29.83 839 24.78 -0.6 30.8 61 -7.2 19
07:55 1010 29.83 839 24.78 -0.9 30.4 62 -7.2 19.1
08:00 1010 29.83 839 24.78 -1 30.3 61 -7.5 18.5
08:05 1010 29.83 839 24.78 -0.7 30.8 59 -7.6 18.3
08:10 1010 29.83 839 24.78 -0.2 31.7 59 -7.3 18.9
08:15 1010 29.83 839 24.78 -0.1 31.9 60 -7 19.4
08:20 1010 29.83 839 24.78 -0.1 31.7 60 -7 19.4
08:25 1010 29.83 839 24.78 -0.2 31.6 61 -6.8 19.7
08:30 1010 29.83 839 24.78 -0.3 31.5 62 -6.7 19.9
08:35 1010 29.83 839 24.78 -0.3 31.4 63 -6.5 20.3
08:40 1010 29.83 839 24.78 -0.4 31.2 63 -6.7 19.9
08:45 1010 29.83 839 24.78 -0.5 31.1 64 -6.6 20.1
08:50 1009 29.8 839 24.78 -0.4 31.2 62 -6.9 19.5
08:55 1009 29.8 839 24.78 -0.1 31.9 59 -7.1 19.2
09:00 1009 29.8 839 24.78 0.2 32.3 60 -6.8 19.8
09:05 1009 29.8 839 24.78 0.3 32.5 58 -6.9 19.5
09:10 1009 29.8 839 24.78 0.5 32.9 57 -7 19.3
09:15 1009 29.8 839 24.78 0.7 33.2 58 -6.6 20.1
09:20 1009 29.8 839 24.78 0.7 33.2 57 -6.9 19.5
09:25 1009 29.8 839 24.78 0.8 33.4 55 -7.2 19
09:30 1009 29.8 839 24.78 0.9 33.6 55 -7.1 19.3
09:35 1009 29.8 839 24.78 0.9 33.6 55 -7.2 19
09:40 1009 29.8 839 24.78 1.1 33.9 55 -7.1 19.2
09:45 1009 29.8 838 24.75 1.1 33.9 55 -6.9 19.5
09:50 1009 29.8 838 24.75 1.1 34 55 -7.1 19.3
09:55 1009 29.8 839 24.78 1.2 34.2 54 -7.1 19.3
10:00 1009 29.8 839 24.78 1.2 34.1 55 -6.9 19.5
10:05 1009 29.8 838 24.75 1.2 34.1 55 -7 19.5
10:10 1009 29.8 838 24.75 1.1 34.1 55 -7 19.5
10:15 1009 29.8 838 24.75 1.2 34.1 55 -6.9 19.6
10:20 1009 29.8 838 24.75 1.2 34.2 54 -7 19.5
10:25 1009 29.8 838 24.75 1.4 34.5 54 -6.9 19.6
10:30 1009 29.8 838 24.75 1.5 34.7 54 -6.9 19.6
10:35 1009 29.8 839 24.78 1.5 34.7 55 -6.6 20.1
10:40 1009 29.8 839 24.78 1.5 34.7 55 -6.6 20.1
10:45 1009 29.8 838 24.75 1.6 34.8 55 -6.6 20.1
10:50 1009 29.8 838 24.75 1.6 34.9 54 -6.7 20
10:55 1009 29.8 838 24.75 1.8 35.2 53 -6.7 19.9
11:00 1009 29.8 838 24.75 2 35.5 53 -6.6 20.1
11:05 1009 29.8 838 24.75 2.1 35.7 52 -6.8 19.8
11:10 1009 29.8 838 24.75 2.2 36 52 -6.7 20
11:15 1009 29.8 838 24.75 2.4 36.3 51 -6.7 19.9
11:20 1009 29.8 838 24.75 2.5 36.5 53 -6 21.1
11:25 1009 29.8 838 24.75 2.1 35.8 52 -6.6 20.1
11:30 1009 29.8 838 24.75 2.3 36.2 52 -6.5 20.2
11:35 1009 29.8 838 24.75 2.5 36.5 51 -6.5 20.3
11:40 1009 29.8 838 24.75 2.7 36.8 52 -6.3 20.6
11:45 1009 29.8 838 24.75 2.7 36.9 51 -6.5 20.3
11:50 1009 29.8 838 24.75 2.8 37.1 51 -6.4 20.5
11:55 1008 29.77 838 24.75 3 37.4 49 -6.6 20.1
12:00 1008 29.77 838 24.75 3.1 37.5 49 -6.5 20.3
12:05 1008 29.77 837 24.72 3.1 37.6 51 -6.2 20.9
12:10 1008 29.77 837 24.72 3.1 37.5 53 -5.7 21.8
12:15 1008 29.77 837 24.72 3 37.4 52 -5.9 21.3
12:20 1008 29.77 837 24.72 3.1 37.5 52 -5.7 21.7
12:25 1008 29.77 837 24.72 3.2 37.7 51 -6 21.1
12:30 1008 29.77 837 24.72 3.2 37.8 50 -6.1 21
12:35 1008 29.77 837 24.72 3.4 38.2 50 -6.1 21
12:40 1008 29.77 837 24.72 3.7 38.6 50 -5.8 21.6
12:45 1008 29.77 837 24.72 3.8 38.8 51 -5.5 22.1
12:50 1008 29.77 837 24.72 3.9 38.9 51 -5.4 22.2
12:55 1007 29.74 837 24.72 4 39.1 49 -5.7 21.8
13:00 1007 29.74 837 24.72 4 39.3 48 -5.9 21.4
13:05 1007 29.74 837 24.72 4.1 39.4 49 -5.7 21.7
13:10 1007 29.74 837 24.72 4.3 39.7 46 -6.3 20.6
13:15 1007 29.74 836 24.69 4.4 39.9 45 -6.5 20.3
13:20 1007 29.74 836 24.69 4.6 40.2 45 -6.4 20.5
13:25 1007 29.74 836 24.69 4.8 40.6 44 -6.6 20.2
13:30 1007 29.74 836 24.69 4.9 40.9 45 -6.1 21
13:35 1007 29.74 836 24.69 5.1 41.3 44 -6 21.2
13:40 1007 29.74 836 24.69 5.2 41.3 45 -5.9 21.4
13:45 1007 29.74 836 24.69 5.4 41.8 44 -5.8 21.6
13:50 1007 29.74 836 24.69 6 42.7 42 -6.1 21
13:55 1007 29.74 836 24.69 5.8 42.4 43 -5.9 21.4
14:00 1007 29.74 836 24.69 5.9 42.7 41 -6.4 20.4
14:05 1007 29.74 836 24.69 5.8 42.5 42 -6.1 21
14:10 1007 29.74 836 24.69 5.5 41.9 41 -6.7 20
14:15 1007 29.74 836 24.69 5.4 41.8 43 -6.2 20.8
14:20 1007 29.74 836 24.69 5.3 41.6 44 -6.1 21.1
14:25 1007 29.74 836 24.69 5.1 41.2 44 -6.3 20.7
14:30 1006 29.71 835 24.66 5.1 41.3 43 -6.5 20.4
14:35 1006 29.71 835 24.66 5 41 43 -6.6 20.1
14:40 1006 29.71 835 24.66 4.9 40.8 44 -6.4 20.5
14:45 1006 29.71 835 24.66 5 41 43 -6.4 20.4
14:50 1006 29.71 835 24.66 5.1 41.2 45 -5.9 21.3
14:55 1006 29.71 835 24.66 5.1 41.1 44 -6.1 21
15:00 1006 29.71 835 24.66 4.9 40.7 45 -6.2 20.8
15:05 1006 29.71 835 24.66 5 41 43 -6.5 20.3
15:10 1005 29.68 835 24.66 5.1 41.1 42 -6.7 20
15:15 1005 29.68 835 24.66 5.1 41.2 42 -6.7 19.9
15:20 1005 29.68 835 24.66 5.1 41.2 44 -6.2 20.8
15:25 1005 29.68 835 24.66 5 41 45 -6.1 21.1
15:30 1005 29.68 835 24.66 4.8 40.7 46 -5.7 21.7
15:35 1006 29.71 835 24.66 4.7 40.4 45 -6.3 20.7
15:40 1005 29.68 835 24.66 4.3 39.8 46 -6.2 20.9
15:45 1005 29.68 834 24.63 4.1 39.4 47 -6.2 20.8
15:50 1005 29.68 834 24.63 4.3 39.7 44 -6.8 19.8
15:55 1005 29.68 834 24.63 4.5 40.1 44 -6.8 19.7
16:00 1005 29.68 834 24.63 4.6 40.3 43 -6.9 19.6
16:05 1005 29.68 834 24.63 4.7 40.4 43 -6.9 19.5
16:10 1005 29.68 834 24.63 4.7 40.4 43 -6.7 19.9
16:15 1005 29.68 834 24.63 4.5 40.1 44 -6.6 20
16:20 1005 29.68 834 24.63 4.4 39.9 45 -6.5 20.3
16:25 1005 29.68 834 24.63 4.3 39.8 43 -7.3 18.9
16:30 1005 29.68 834 24.63 4.3 39.7 43 -7.1 19.2
16:35 1005 29.68 834 24.63 4.2 39.6 44 -7 19.4
16:40 1005 29.68 834 24.63 4.3 39.7 44 -7 19.4
16:45 1005 29.68 834 24.63 4.4 39.9 41 -7.8 17.9
16:50 1005 29.68 834 24.63 4.6 40.3 42 -7.3 18.9
16:55 1005 29.68 834 24.63 4.6 40.4 43 -6.9 19.7
17:00 1005 29.68 834 24.63 4.5 40.1 41 -7.5 18.4
17:05 1005 29.68 834 24.63 4.5 40 42 -7.3 18.9
17:10 1005 29.68 834 24.63 4.3 39.7 44 -6.9 19.6
17:15 1005 29.68 834 24.63 4.2 39.5 40 -8.2 17.3
17:20 1005 29.68 834 24.63 4.4 39.9 41 -7.6 18.3
17:25 1005 29.68 834 24.63 4.3 39.8 41 -7.9 17.7
17:30 1005 29.68 834 24.63 4.3 39.8 42 -7.3 18.8
17:35 1005 29.68 834 24.63 4.1 39.3 43 -7.4 18.8
17:40 1005 29.68 834 24.63 4.1 39.5 41 -7.8 17.9
17:45 1005 29.68 834 24.63 4.4 39.9 40 -8.2 17.2
17:50 1005 29.68 834 24.63 4.5 40.1 40 -8 17.5
17:55 1005 29.68 834 24.63 4.4 40 39 -8.3 17.1
18:00 1005 29.68 834 24.63 4.3 39.8 39 -8.4 17
18:05 1005 29.68 834 24.63 4.3 39.7 40 -8.3 17.1
18:10 1005 29.68 834 24.63 4.2 39.6 39 -8.4 16.8
18:15 1005 29.68 834 24.63 4.2 39.6 38 -8.7 16.3
18:20 1005 29.68 834 24.63 4.2 39.6 40 -8.1 17.5
18:25 1005 29.68 834 24.63 4 39.1 41 -8.2 17.2
18:30 1005 29.68 834 24.63 4 39.1 40 -8.4 16.9
18:35 1005 29.68 834 24.63 3.8 38.8 45 -7.2 19.1
18:40 1005 29.68 834 24.63 3.3 37.9 44 -7.9 17.8
18:45 1005 29.68 834 24.63 3.4 38.1 45 -7.6 18.4
18:50 1004 29.65 834 24.63 3.4 38.1 42 -8.4 16.9
18:55 1004 29.65 834 24.63 3.6 38.5 42 -8.2 17.2
19:00 1004 29.65 834 24.63 3.6 38.4 43 -7.8 17.9
19:05 1004 29.65 834 24.63 3.4 38.1 44 -7.8 18
19:10 1004 29.65 834 24.63 3.4 38.1 42 -8.2 17.2
19:15 1004 29.65 834 24.63 3.5 38.2 43 -7.9 17.8
19:20 1004 29.65 834 24.63 3.4 38.2 43 -8.1 17.4
19:25 1004 29.65 834 24.63 3.6 38.5 40 -8.7 16.4
19:30 1004 29.65 834 24.63 3.5 38.2 43 -7.9 17.8
19:35 1004 29.65 834 24.63 3.1 37.5 45 -7.8 18
19:40 1004 29.65 834 24.63 3 37.5 44 -8 17.5
19:45 1004 29.65 834 24.63 3.3 37.9 42 -8.5 16.7
19:50 1004 29.65 834 24.63 3.5 38.3 42 -8.2 17.3
19:55 1004 29.65 834 24.63 3.5 38.3 41 -8.6 16.6
20:00 1004 29.65 833 24.6 3.4 38.1 44 -7.8 17.9
20:05 1004 29.65 833 24.6 3.1 37.6 45 -7.7 18.2
20:10 1004 29.65 833 24.6 3 37.5 47 -7.1 19.2
20:15 1004 29.65 833 24.6 3.1 37.5 45 -7.7 18.2
20:20 1004 29.65 833 24.6 3.1 37.5 47 -7.2 19
20:25 1004 29.65 833 24.6 3 37.3 48 -6.9 19.6
20:30 1004 29.65 833 24.6 2.9 37.2 47 -7.4 18.6
20:35 1004 29.65 833 24.6 2.9 37.2 46 -7.6 18.3
20:40 1004 29.65 833 24.6 2.9 37.3 45 -7.8 17.9
20:45 1004 29.65 833 24.6 2.9 37.2 45 -7.8 18
20:50 1004 29.65 833 24.6 2.9 37.1 45 -7.9 17.7
20:55 1004 29.65 833 24.6 2.9 37.2 45 -8 17.5
21:00 1004 29.65 833 24.6 2.9 37.2 46 -7.5 18.5
21:05 1004 29.65 833 24.6 2.9 37.2 44 -8.2 17.3
21:10 1004 29.65 833 24.6 2.9 37.3 44 -8.1 17.5
21:15 1004 29.65 833 24.6 3.1 37.6 42 -8.6 16.6
21:20 1004 29.65 833 24.6 3.3 38 43 -8.1 17.4
21:25 1004 29.65 833 24.6 3.4 38.1 42 -8.3 17.1
21:30 1004 29.65 833 24.6 3.4 38.1 43 -8.2 17.3
21:35 1004 29.65 833 24.6 3.3 38 43 -8 17.6
21:40 1004 29.65 833 24.6 3.1 37.6 46 -7.5 18.5
21:45 1004 29.65 833 24.6 2.8 37 47 -7.5 18.6
21:50 1004 29.65 833 24.6 2.6 36.7 48 -7.3 18.8
21:55 1003 29.62 833 24.6 2.4 36.4 49 -7.3 18.8
22:00 1003 29.62 833 24.6 2.3 36.2 49 -7.2 19
22:05 1003 29.62 833 24.6 2.4 36.2 46 -8 17.6
22:10 1003 29.62 833 24.6 2.6 36.6 48 -7.3 18.9
22:15 1004 29.65 833 24.6 2.4 36.3 48 -7.4 18.7
22:20 1003 29.62 833 24.6 2.3 36.2 49 -7.2 19
22:25 1003 29.62 833 24.6 2.2 36 49 -7.5 18.4
22:30 1004 29.65 833 24.6 2.2 36 49 -7.4 18.7
22:35 1004 29.65 833 24.6 2.3 36.2 47 -7.8 17.9
22:40 1003 29.62 833 24.6 2.6 36.7 47 -7.7 18.1
22:45 1004 29.65 833 24.6 2.7 36.8 48 -7.4 18.7
22:50 1003 29.62 833 24.6 2.6 36.6 49 -7.1 19.3
22:55 1003 29.62 833 24.6 2.3 36.2 49 -7.4 18.7
23:00 1003 29.62 833 24.6 2.3 36.2 49 -7.4 18.7
23:05 1003 29.62 833 24.6 2.2 35.9 50 -7.3 18.9
23:10 1003 29.62 833 24.6 2.1 35.8 49 -7.5 18.4
23:15 1003 29.62 833 24.6 2.2 35.9 48 -7.7 18.1
23:20 1003 29.62 833 24.6 2.2 36 50 -7.2 19
23:25 1003 29.62 833 24.6 2.2 36 48 -7.6 18.3
23:30 1003 29.62 833 24.6 2.4 36.3 47 -7.9 17.8
23:35 1003 29.62 833 24.6 2.9 37.2 47 -7.3 18.8
23:40 1003 29.62 833 24.6 3 37.4 44 -8 17.6
23:45 1003 29.62 833 24.6 3.4 38.1 45 -7.6 18.4
23:50 1003 29.62 833 24.6 3.5 38.3 44 -7.6 18.4
23:55 1003 29.62 833 24.6 3.4 38.1 46 -7.1 19.3
24:00 1004 29.65 833 24.6 3.2 37.8 47 -6.9 19.5